Time;durP1;ratioP1;P1;durP2;ratioP2;P2;SDS_P1;SDS_P2;PMS_P1;PMS_P2;Temp;Humidity;BMP_temperature;BMP_pressure;BME280_temperature;BME280_humidity;BME280_pressure;Samples;Min_cycle;Max_cycle;Signal;HPM_P1;HPM_P2
2022/08/21 00:01:28;;;;;;;4.07;2.92;;;26.30;99.90;;;;;;5065953;28;20048;-75
2022/08/21 00:03:56;;;;;;;5.32;2.25;;;26.30;99.90;;;;;;5066428;28;20075;-75
2022/08/21 00:06:24;;;;;;;6.85;2.97;;;26.30;99.90;;;;;;5050170;28;20064;-75
2022/08/21 00:08:51;;;;;;;5.97;2.40;;;26.30;99.90;;;;;;5100648;28;20048;-75
2022/08/21 00:11:20;;;;;;;6.28;3.78;;;26.30;99.90;;;;;;5069610;28;20049;-75
2022/08/21 00:13:47;;;;;;;4.30;2.25;;;26.30;99.90;;;;;;5053879;28;20049;-75
2022/08/21 00:16:15;;;;;;;5.43;2.42;;;26.30;99.90;;;;;;5086729;28;20548;-75
2022/08/21 00:18:43;;;;;;;5.22;3.10;;;26.30;99.90;;;;;;5087176;28;20688;-76
2022/08/21 00:21:14;;;;;;;6.15;2.33;;;26.30;99.90;;;;;;5069235;28;20522;-75
2022/08/21 00:23:42;;;;;;;6.65;2.20;;;26.30;99.90;;;;;;5053551;28;20122;-75
2022/08/21 00:26:10;;;;;;;3.45;2.45;;;26.30;99.90;;;;;;5071239;28;20048;-75
2022/08/21 00:28:37;;;;;;;5.28;2.95;;;26.20;99.90;;;;;;5069862;28;20139;-75
2022/08/21 00:31:05;;;;;;;8.02;2.70;;;26.30;99.90;;;;;;5071140;28;20132;-76
2022/08/21 00:33:33;;;;;;;7.88;2.22;;;26.30;99.90;;;;;;5070073;28;20492;-75
2022/08/21 00:36:01;;;;;;;6.57;2.60;;;26.20;99.90;;;;;;5053221;28;20122;-75
2022/08/21 00:38:29;;;;;;;5.00;1.90;;;26.20;99.90;;;;;;5069336;28;20048;-75
2022/08/21 00:41:01;;;;;;;3.28;2.05;;;26.20;99.90;;;;;;5069785;28;20048;-76
2022/08/21 00:43:31;;;;;;;4.95;2.40;;;26.20;99.90;;;;;;5069224;28;20055;-76
2022/08/21 00:45:59;;;;;;;5.93;2.13;;;26.20;99.90;;;;;;5053195;28;20084;-76
2022/08/21 00:48:27;;;;;;;4.65;1.95;;;26.10;99.90;;;;;;5103365;28;20052;-76
2022/08/21 00:51:05;;;;;;;5.68;2.35;;;26.10;99.90;;;;;;5069150;28;20098;-76
2022/08/21 00:53:35;;;;;;;4.50;2.50;;;26.10;99.90;;;;;;5052712;28;20110;-75
2022/08/21 00:56:06;;;;;;;6.25;2.78;;;26.10;99.90;;;;;;5070028;28;20371;-75
2022/08/21 00:58:35;;;;;;;4.07;2.17;;;26.20;99.90;;;;;;5069694;28;20037;-76
2022/08/21 01:01:05;;;;;;;8.40;3.13;;;26.20;99.90;;;;;;5069618;28;20045;-75
2022/08/21 01:03:35;;;;;;;3.88;1.42;;;26.20;99.90;;;;;;5053570;28;20063;-75
2022/08/21 01:06:04;;;;;;;3.47;1.77;;;26.30;99.90;;;;;;5070646;28;20410;-76
2022/08/21 01:08:33;;;;;;;5.68;1.98;;;26.30;99.90;;;;;;5086595;28;20500;-75
2022/08/21 01:11:01;;;;;;;5.05;2.50;;;26.30;99.90;;;;;;5069517;28;20151;-76
2022/08/21 01:13:33;;;;;;;3.42;2.00;;;26.30;99.90;;;;;;5070461;28;20052;-76
2022/08/21 01:16:04;;;;;;;6.75;2.50;;;26.30;99.90;;;;;;5069156;28;20044;-76
2022/08/21 01:18:31;;;;;;;5.55;1.80;;;26.30;99.90;;;;;;5048672;28;20061;-76
2022/08/21 01:21:05;;;;;;;5.15;2.20;;;26.20;99.90;;;;;;5048277;28;20052;-76
2022/08/21 01:23:34;;;;;;;4.82;1.60;;;26.20;99.90;;;;;;5065526;28;20143;-76
2022/08/21 01:26:02;;;;;;;3.28;2.33;;;26.20;99.90;;;;;;5050498;28;20057;-75
2022/08/21 01:28:34;;;;;;;2.65;1.60;;;26.20;99.90;;;;;;5032238;28;20057;-75
2022/08/21 01:31:04;;;;;;;8.20;2.33;;;26.20;99.90;;;;;;5048914;28;20040;-75
2022/08/21 01:33:34;;;;;;;4.43;1.77;;;26.10;99.90;;;;;;5082008;28;20055;-76
2022/08/21 01:36:02;;;;;;;4.63;2.30;;;26.10;99.90;;;;;;5050485;28;20064;-76
2022/08/21 01:38:30;;;;;;;4.30;1.98;;;26.10;99.90;;;;;;5032627;28;20041;-75
2022/08/21 01:40:58;;;;;;;2.60;1.75;;;26.10;99.90;;;;;;5064981;28;20041;-75
2022/08/21 01:43:25;;;;;;;3.80;1.60;;;26.20;99.90;;;;;;5081884;28;20491;-75
2022/08/21 01:45:53;;;;;;;3.65;1.60;;;26.20;99.90;;;;;;5048852;28;20060;-75
2022/08/21 01:48:20;;;;;;;3.65;1.73;;;26.20;99.90;;;;;;5049898;28;20511;-75
2022/08/21 01:50:48;;;;;;;6.95;1.65;;;26.30;99.90;;;;;;5064895;28;20140;-75
2022/08/21 01:53:15;;;;;;;6.88;1.88;;;26.30;99.90;;;;;;5081324;28;20149;-76
2022/08/21 01:55:44;;;;;;;4.47;1.55;;;26.30;99.90;;;;;;5048732;28;20103;-75
2022/08/21 01:58:11;;;;;;;3.72;1.50;;;26.30;99.90;;;;;;5049946;28;20051;-75
2022/08/21 02:00:39;;;;;;;3.97;2.33;;;26.30;99.90;;;;;;5049606;28;20412;-75
2022/08/21 02:03:07;;;;;;;3.15;1.63;;;26.30;99.90;;;;;;5052910;28;20044;-76
2022/08/21 02:05:35;;;;;;;4.65;1.75;;;26.20;99.90;;;;;;5051364;28;20056;-75
2022/08/21 02:08:05;;;;;;;4.00;1.58;;;26.20;99.90;;;;;;5085256;28;20045;-75
2022/08/21 02:10:33;;;;;;;4.25;2.03;;;26.20;99.90;;;;;;5068029;28;20040;-75
2022/08/21 02:13:01;;;;;;;5.30;1.85;;;26.10;99.90;;;;;;5067880;28;20044;-75
2022/08/21 02:15:29;;;;;;;4.00;1.35;;;26.10;99.90;;;;;;5101675;28;20879;-75
2022/08/21 02:18:00;;;;;;;6.45;2.22;;;26.10;99.90;;;;;;5084649;28;20044;-75
2022/08/21 02:20:35;;;;;;;3.85;1.40;;;26.10;99.90;;;;;;5051754;28;20052;-75
2022/08/21 02:23:04;;;;;;;4.10;1.80;;;26.10;99.90;;;;;;5067356;28;20401;-75
2022/08/21 02:25:33;;;;;;;4.50;1.75;;;26.10;99.90;;;;;;5067672;28;20115;-75
2022/08/21 02:28:04;;;;;;;3.65;1.52;;;26.10;99.90;;;;;;5051555;28;20842;-75
2022/08/21 02:30:37;;;;;;;5.03;2.00;;;26.10;99.90;;;;;;5067804;28;20060;-75
2022/08/21 02:33:06;;;;;;;5.10;2.05;;;26.10;99.90;;;;;;5051032;28;20143;-75
2022/08/21 02:35:34;;;;;;;5.28;1.70;;;26.10;99.90;;;;;;5050622;28;20529;-75
2022/08/21 02:38:05;;;;;;;3.05;1.60;;;26.10;99.90;;;;;;5084387;28;20056;-76
2022/08/21 02:40:35;;;;;;;5.53;1.85;;;26.10;99.90;;;;;;5067399;28;20146;-75
2022/08/21 02:43:05;;;;;;;3.63;2.42;;;26.00;99.90;;;;;;5067439;28;20052;-75
2022/08/21 02:45:33;;;;;;;3.65;1.80;;;26.00;99.90;;;;;;5050458;28;20179;-75
2022/08/21 02:48:04;;;;;;;3.47;2.35;;;26.00;99.90;;;;;;5100866;28;20487;-75
2022/08/21 02:50:35;;;;;;;2.90;2.00;;;25.90;99.90;;;;;;5067327;28;20159;-75
2022/08/21 02:53:05;;;;;;;3.85;1.90;;;25.90;99.90;;;;;;5067784;28;20360;-75
2022/08/21 02:55:35;;;;;;;4.72;2.00;;;25.80;99.90;;;;;;5100809;28;20055;-75
2022/08/21 02:58:04;;;;;;;3.72;1.67;;;25.80;99.90;;;;;;5067470;28;20060;-75
2022/08/21 03:00:33;;;;;;;4.47;2.00;;;25.70;99.90;;;;;;5064562;28;20143;-75
2022/08/21 03:03:01;;;;;;;8.20;3.05;;;25.70;99.90;;;;;;5098756;28;20393;-75
2022/08/21 03:05:31;;;;;;;4.35;2.55;;;25.70;99.90;;;;;;5082364;28;20144;-75
2022/08/21 03:08:00;;;;;;;5.00;1.58;;;25.70;99.90;;;;;;5083909;28;20463;-75
2022/08/21 03:10:30;;;;;;;4.32;1.88;;;25.60;99.90;;;;;;5068575;28;20074;-75
2022/08/21 03:12:58;;;;;;;3.13;1.77;;;25.60;99.90;;;;;;5066986;28;20048;-75
2022/08/21 03:15:25;;;;;;;3.08;1.95;;;25.60;99.90;;;;;;5050622;28;20122;-75
2022/08/21 03:17:54;;;;;;;3.70;1.42;;;25.60;99.90;;;;;;5066814;28;20044;-75
2022/08/21 03:20:26;;;;;;;20.67;2.75;;;25.60;99.90;;;;;;5084398;28;20070;-75
2022/08/21 03:22:54;;;;;;;6.25;2.22;;;25.50;99.90;;;;;;5068284;28;20044;-75
2022/08/21 03:25:23;;;;;;;3.95;2.13;;;25.50;99.90;;;;;;5066961;28;20449;-75
2022/08/21 03:27:51;;;;;;;5.40;2.53;;;25.50;99.90;;;;;;5068151;28;20056;-77
2022/08/21 03:30:21;;;;;;;3.70;1.63;;;25.50;99.90;;;;;;5083364;28;20191;-76
2022/08/21 03:32:50;;;;;;;3.28;1.92;;;25.50;99.90;;;;;;5083676;28;20058;-76
2022/08/21 03:35:18;;;;;;;6.47;1.58;;;25.50;99.90;;;;;;5099966;28;20060;-75
2022/08/21 03:37:46;;;;;;;4.53;1.83;;;25.40;99.90;;;;;;5068138;28;20151;-75
2022/08/21 03:40:17;;;;;;;5.07;1.70;;;25.40;99.90;;;;;;5083136;28;20047;-76
2022/08/21 03:42:48;;;;;;;4.88;2.45;;;25.40;99.90;;;;;;5067784;28;20067;-76
2022/08/21 03:45:18;;;;;;;5.28;2.30;;;25.30;99.90;;;;;;5099153;28;20085;-75
2022/08/21 03:47:57;;;;;;;4.65;1.90;;;25.30;99.90;;;;;;5100250;28;20498;-75
2022/08/21 03:50:30;;;;;;;2.67;2.10;;;25.30;99.90;;;;;;5066435;28;20090;-75
2022/08/21 03:52:58;;;;;;;3.25;2.25;;;25.30;99.90;;;;;;5083384;28;20037;-75
2022/08/21 03:55:26;;;;;;;3.83;1.88;;;25.20;99.90;;;;;;5065802;28;20152;-75
2022/08/21 03:57:54;;;;;;;5.93;2.30;;;25.20;99.90;;;;;;5066079;28;20376;-75
2022/08/21 04:00:22;;;;;;;8.07;2.67;;;25.20;99.90;;;;;;5100119;28;20106;-75
2022/08/21 04:02:50;;;;;;;5.18;2.78;;;25.20;99.90;;;;;;5083128;28;20196;-76
2022/08/21 04:05:27;;;;;;;2.63;1.70;;;25.20;99.90;;;;;;5066356;28;20055;-76
2022/08/21 04:07:57;;;;;;;6.20;2.67;;;25.20;99.90;;;;;;5066511;28;20162;-76
2022/08/21 04:10:27;;;;;;;3.85;2.45;;;25.20;99.90;;;;;;5100098;28;20414;-76
2022/08/21 04:12:55;;;;;;;4.70;2.60;;;25.10;99.90;;;;;;5050047;28;20062;-76
2022/08/21 04:15:24;;;;;;;5.25;2.60;;;25.10;99.90;;;;;;5066355;28;20056;-76
2022/08/21 04:17:52;;;;;;;5.25;1.90;;;25.20;99.90;;;;;;5066616;28;20131;-75
2022/08/21 04:20:21;;;;;;;4.90;2.17;;;25.20;99.90;;;;;;5082857;28;20481;-75
2022/08/21 04:22:50;;;;;;;3.90;1.92;;;25.20;99.90;;;;;;5049509;28;20049;-76
2022/08/21 04:25:20;;;;;;;4.35;2.13;;;25.20;99.90;;;;;;5065893;28;20048;-76
2022/08/21 04:27:47;;;;;;;4.13;1.92;;;25.20;99.90;;;;;;5099855;28;20117;-77
2022/08/21 04:30:16;;;;;;;3.75;2.00;;;25.30;99.80;;;;;;5049312;28;20138;-77
2022/08/21 04:32:46;;;;;;;3.05;1.70;;;25.30;99.60;;;;;;5049893;28;20048;-77
2022/08/21 04:35:16;;;;;;;3.65;1.90;;;25.40;99.50;;;;;;5066249;28;20056;-76
2022/08/21 04:37:43;;;;;;;2.80;1.75;;;25.50;99.30;;;;;;5049273;28;20060;-76
2022/08/21 04:40:13;;;;;;;3.10;1.98;;;25.60;98.90;;;;;;5066476;28;20060;-76
2022/08/21 04:42:51;;;;;;;3.75;2.10;;;25.80;98.80;;;;;;5049382;28;20052;-76
2022/08/21 04:45:30;;;;;;;3.17;1.80;;;25.90;98.50;;;;;;5067271;28;20051;-77
2022/08/21 04:48:00;;;;;;;6.45;2.22;;;26.10;98.40;;;;;;5097252;28;20562;-77
2022/08/21 04:50:35;;;;;;;4.05;1.90;;;26.20;98.20;;;;;;5067554;28;20041;-77
2022/08/21 04:53:09;;;;;;;3.15;1.88;;;26.30;98.00;;;;;;5099894;28;20388;-77
2022/08/21 04:55:38;;;;;;;3.28;2.00;;;26.40;97.90;;;;;;5067285;28;20380;-76
2022/08/21 04:58:08;;;;;;;3.30;2.05;;;26.60;97.80;;;;;;5052768;28;20060;-76
2022/08/21 05:00:36;;;;;;;4.38;2.10;;;26.60;97.70;;;;;;5070732;28;20059;-76
2022/08/21 05:03:07;;;;;;;4.55;2.60;;;26.70;97.50;;;;;;5052926;28;20147;-76
2022/08/21 05:05:35;;;;;;;3.47;1.70;;;26.80;97.40;;;;;;5069353;28;20033;-76
2022/08/21 05:08:04;;;;;;;3.33;1.85;;;26.90;97.30;;;;;;5103313;28;20044;-77
2022/08/21 05:10:32;;;;;;;3.75;1.90;;;27.00;97.10;;;;;;5069410;28;20041;-77
2022/08/21 05:13:00;;;;;;;7.55;2.42;;;27.10;97.00;;;;;;5086117;28;20056;-76
2022/08/21 05:15:30;;;;;;;3.25;1.75;;;27.20;96.80;;;;;;5085366;28;20052;-77
2022/08/21 05:17:58;;;;;;;4.70;2.03;;;27.40;96.70;;;;;;5069226;28;20133;-76
2022/08/21 05:20:25;;;;;;;4.28;1.85;;;27.50;96.60;;;;;;5102867;28;20041;-76
2022/08/21 05:22:54;;;;;;;5.22;2.15;;;27.70;96.50;;;;;;5070553;28;20048;-76
2022/08/21 05:25:21;;;;;;;5.05;2.38;;;27.80;96.30;;;;;;5052275;28;20091;-76
2022/08/21 05:27:49;;;;;;;3.65;2.55;;;27.90;96.10;;;;;;5068787;28;20425;-76
2022/08/21 05:30:16;;;;;;;5.80;2.65;;;28.00;95.80;;;;;;5070233;28;20110;-75
2022/08/21 05:32:44;;;;;;;5.75;3.38;;;28.10;95.70;;;;;;5052372;28;20513;-76
2022/08/21 05:35:12;;;;;;;9.27;4.85;;;28.20;95.50;;;;;;5102207;28;20403;-76
2022/08/21 05:37:39;;;;;;;8.57;4.53;;;28.30;95.50;;;;;;5102594;28;20558;-77
2022/08/21 05:40:08;;;;;;;8.27;4.45;;;28.40;95.40;;;;;;5067195;28;20041;-75
2022/08/21 05:42:35;;;;;;;7.47;3.25;;;28.50;95.30;;;;;;5102708;28;20429;-76
2022/08/21 05:45:03;;;;;;;7.25;3.78;;;28.50;95.20;;;;;;5070127;28;20040;-76
2022/08/21 05:47:31;;;;;;;6.25;2.72;;;28.70;95.10;;;;;;5085081;28;20072;-76
2022/08/21 05:49:58;;;;;;;6.10;2.95;;;28.80;94.90;;;;;;5101897;28;20052;-75
2022/08/21 05:52:26;;;;;;;6.72;3.30;;;28.90;94.80;;;;;;5068319;28;20052;-75
2022/08/21 05:54:54;;;;;;;6.00;2.78;;;29.00;94.60;;;;;;5068561;28;20163;-75
2022/08/21 05:57:23;;;;;;;5.03;1.95;;;29.20;94.50;;;;;;5084802;28;20184;-76
2022/08/21 05:59:50;;;;;;;8.10;2.53;;;29.30;94.30;;;;;;5068731;28;20481;-75
2022/08/21 06:02:20;;;;;;;6.97;2.42;;;29.40;94.10;;;;;;5051837;28;20140;-75
2022/08/21 06:04:48;;;;;;;3.33;2.25;;;29.50;94.10;;;;;;5084899;28;20141;-75
2022/08/21 06:07:16;;;;;;;4.60;2.60;;;29.60;94.00;;;;;;5084471;28;20044;-76
2022/08/21 06:09:43;;;;;;;4.43;2.70;;;29.80;94.00;;;;;;5069731;28;20103;-75
2022/08/21 06:12:12;;;;;;;6.60;2.70;;;29.70;94.00;;;;;;5068269;28;20051;-75
2022/08/21 06:14:41;;;;;;;7.80;2.78;;;29.80;94.00;;;;;;5068033;28;20088;-76
2022/08/21 06:17:11;;;;;;;6.10;2.83;;;30.00;94.00;;;;;;5067832;28;20055;-76
2022/08/21 06:19:39;;;;;;;5.28;2.47;;;30.10;94.00;;;;;;5068016;28;20112;-75
2022/08/21 06:22:07;;;;;;;7.68;3.15;;;30.20;93.80;;;;;;5050855;28;20239;-76
2022/08/21 06:24:35;;;;;;;5.07;2.70;;;30.30;93.80;;;;;;5050882;28;20055;-75
2022/08/21 06:27:07;;;;;;;4.43;1.90;;;30.30;93.70;;;;;;5063913;28;20047;-76
2022/08/21 06:29:35;;;;;;;6.07;2.65;;;30.40;93.70;;;;;;5049319;28;20048;-75
2022/08/21 06:32:03;;;;;;;5.13;2.13;;;30.40;93.80;;;;;;5080641;28;20242;-76
2022/08/21 06:34:31;;;;;;;5.88;2.70;;;30.50;93.70;;;;;;5080893;28;20057;-75
2022/08/21 06:36:58;;;;;;;4.93;2.45;;;30.50;93.60;;;;;;5080534;28;20521;-76
2022/08/21 06:39:26;;;;;;;6.03;2.65;;;30.70;93.40;;;;;;5081125;28;20049;-75
2022/08/21 06:41:54;;;;;;;7.97;3.15;;;30.80;93.20;;;;;;5080786;28;20087;-75
2022/08/21 06:44:29;;;;;;;4.68;2.50;;;30.90;93.10;;;;;;5047649;28;20052;-76
2022/08/21 06:46:56;;;;;;;6.57;2.00;;;31.00;93.00;;;;;;5047550;28;20048;-76
2022/08/21 06:49:24;;;;;;;3.90;2.30;;;31.20;93.00;;;;;;5048557;28;20067;-75
2022/08/21 06:51:51;;;;;;;6.30;2.60;;;31.20;92.90;;;;;;5080150;28;20045;-75
2022/08/21 06:54:19;;;;;;;4.72;2.60;;;31.30;92.80;;;;;;5063602;28;20039;-75
2022/08/21 06:56:46;;;;;;;4.03;2.25;;;31.40;92.70;;;;;;5080527;28;20380;-76
2022/08/21 06:59:14;;;;;;;5.50;3.35;;;31.50;92.50;;;;;;5047042;28;20053;-76
2022/08/21 07:01:42;;;;;;;3.38;2.30;;;31.60;92.60;;;;;;5063635;28;20126;-76
2022/08/21 07:04:09;;;;;;;6.85;2.80;;;31.70;92.50;;;;;;5080713;28;20098;-73
2022/08/21 07:06:37;;;;;;;4.65;2.17;;;31.80;92.50;;;;;;5080663;28;20106;-73
2022/08/21 07:09:04;;;;;;;14.32;3.80;;;31.80;92.50;;;;;;5080515;28;20146;-73
2022/08/21 07:11:32;;;;;;;3.67;2.28;;;31.80;92.50;;;;;;5048295;28;20080;-73
2022/08/21 07:14:00;;;;;;;6.53;2.70;;;31.90;92.40;;;;;;5047035;28;20052;-73
2022/08/21 07:16:27;;;;;;;4.30;3.63;;;32.00;92.40;;;;;;5080143;28;20430;-74
2022/08/21 07:18:55;;;;;;;5.95;2.70;;;32.00;92.30;;;;;;5047313;28;20040;-74
2022/08/21 07:21:23;;;;;;;5.55;2.63;;;32.10;92.30;;;;;;5079755;28;20106;-73
2022/08/21 07:23:52;;;;;;;12.93;3.08;;;32.20;92.30;;;;;;5081166;28;20037;-73
2022/08/21 07:26:22;;;;;;;6.25;3.03;;;32.20;92.30;;;;;;5068127;28;20044;-73
2022/08/21 07:28:50;;;;;;;6.32;2.20;;;32.30;92.30;;;;;;5066536;28;20049;-74
2022/08/21 07:31:21;;;;;;;10.15;2.92;;;32.30;92.30;;;;;;5083103;28;20041;-74
2022/08/21 07:33:48;;;;;;;6.60;3.65;;;32.10;92.40;;;;;;5066832;28;20467;-74
2022/08/21 07:36:17;;;;;;;4.53;2.88;;;31.80;92.70;;;;;;5068182;28;20045;-74
2022/08/21 07:38:45;;;;;;;5.80;2.72;;;31.60;92.90;;;;;;5068359;28;20067;-74
2022/08/21 07:41:26;;;;;;;7.20;2.25;;;31.40;93.10;;;;;;5067186;28;20135;-74
2022/08/21 07:43:53;;;;;;;7.70;2.92;;;31.20;93.20;;;;;;5050382;28;20375;-74
2022/08/21 07:46:21;;;;;;;7.20;3.20;;;31.00;93.40;;;;;;5083013;28;20376;-74
2022/08/21 07:48:49;;;;;;;11.88;2.92;;;31.00;93.70;;;;;;5050035;28;20567;-75
2022/08/21 07:51:18;;;;;;;6.10;2.65;;;30.90;93.60;;;;;;5050202;28;20052;-74
2022/08/21 07:53:51;;;;;;;5.55;2.60;;;30.90;93.60;;;;;;5066679;28;20410;-74
2022/08/21 07:56:19;;;;;;;6.10;3.00;;;31.20;93.50;;;;;;5100103;28;20197;-74
2022/08/21 07:58:47;;;;;;;4.63;2.42;;;31.40;93.30;;;;;;5099971;28;20148;-74
2022/08/21 08:01:15;;;;;;;9.15;2.60;;;31.60;93.10;;;;;;5082607;28;20135;-75
2022/08/21 08:03:44;;;;;;;6.25;2.70;;;31.80;93.00;;;;;;5067567;28;20830;-74
2022/08/21 08:06:13;;;;;;;5.30;2.63;;;31.90;92.80;;;;;;5066219;28;20565;-75
2022/08/21 08:08:42;;;;;;;8.63;2.83;;;32.00;92.40;;;;;;5099894;28;20048;-74
2022/08/21 08:11:11;;;;;;;10.10;2.72;;;31.90;92.70;;;;;;5066100;28;20110;-74
2022/08/21 08:13:45;;;;;;;5.10;2.40;;;32.00;92.30;;;;;;5049346;28;20057;-74
2022/08/21 08:16:14;;;;;;;4.75;2.30;;;32.00;92.40;;;;;;5080723;28;20049;-74
2022/08/21 08:18:42;;;;;;;7.10;3.00;;;32.20;92.40;;;;;;5079591;28;20049;-74
2022/08/21 08:21:11;;;;;;;4.80;2.35;;;32.20;92.10;;;;;;5045497;28;20419;-75
2022/08/21 08:23:39;;;;;;;6.82;2.53;;;32.20;91.90;;;;;;5047388;28;20045;-74
2022/08/21 08:26:07;;;;;;;9.30;3.05;;;32.00;92.00;;;;;;5046226;28;20056;-75
2022/08/21 08:28:34;;;;;;;7.00;2.67;;;31.90;91.70;;;;;;5047303;28;20378;-75
2022/08/21 08:31:02;;;;;;;7.63;2.75;;;32.00;91.90;;;;;;5065109;28;20492;-74
2022/08/21 08:33:30;;;;;;;7.47;2.78;;;32.00;91.80;;;;;;5049212;28;20778;-74
2022/08/21 08:35:58;;;;;;;7.75;2.65;;;32.10;91.80;;;;;;5083176;28;20045;-75
2022/08/21 08:38:27;;;;;;;7.90;3.20;;;32.10;91.70;;;;;;5050066;28;20053;-74
2022/08/21 08:41:17;;;;;;;7.32;2.28;;;32.20;91.70;;;;;;5082814;28;20045;-74
2022/08/21 08:43:51;;;;;;;7.03;2.35;;;32.40;91.50;;;;;;5083004;28;20044;-74
2022/08/21 08:46:33;;;;;;;7.15;2.60;;;32.30;91.20;;;;;;5083137;28;20123;-74
2022/08/21 08:49:10;;;;;;;8.73;3.28;;;32.00;91.00;;;;;;5049489;28;20064;-74
2022/08/21 08:51:51;;;;;;;6.95;3.53;;;31.80;91.40;;;;;;5049519;28;20053;-74
2022/08/21 08:54:41;;;;;;;8.80;2.33;;;31.80;91.60;;;;;;5049464;28;20326;-74
2022/08/21 08:57:19;;;;;;;6.45;2.60;;;31.90;91.10;;;;;;5065792;28;20475;-74
2022/08/21 08:59:55;;;;;;;6.60;2.55;;;32.00;91.00;;;;;;5082605;28;20051;-74
2022/08/21 09:02:27;;;;;;;;;;;32.30;91.00;;;;;;5051131;28;20079;-75
2022/08/21 09:04:55;;;;;;;6.00;2.53;;;32.40;90.90;;;;;;5065420;28;20038;-76
2022/08/21 09:07:38;;;;;;;5.68;2.42;;;32.40;90.80;;;;;;5048843;28;20113;-76
2022/08/21 09:10:43;;;;;;;5.10;2.55;;;32.30;90.80;;;;;;5032448;28;20135;-75
2022/08/21 09:13:19;;;;;;;5.05;2.13;;;32.00;90.50;;;;;;5059315;28;20380;-75
2022/08/21 09:16:02;;;;;;;;;;;32.00;90.50;;;;;;5033372;28;20053;-75
2022/08/21 09:19:02;;;;;;;5.20;2.75;;;31.90;90.40;;;;;;5065520;28;20016;-75
2022/08/21 09:22:00;;;;;;;5.78;3.13;;;32.00;90.70;;;;;;5047725;28;20087;-76
2022/08/21 09:24:47;;;;;;;8.82;2.72;;;32.00;91.10;;;;;;5050529;28;20511;-76
2022/08/21 09:27:20;;;;;;;8.10;2.80;;;31.70;91.30;;;;;;5048192;28;20435;-76
2022/08/21 09:29:54;;;;;;;7.75;3.58;;;31.60;91.40;;;;;;5048552;28;20060;-76
2022/08/21 09:32:25;;;;;;;5.78;2.53;;;31.80;91.30;;;;;;5048765;28;20072;-75
2022/08/21 09:35:09;;;;;;;4.28;2.28;;;32.10;91.50;;;;;;5065557;28;20041;-76
2022/08/21 09:37:57;;;;;;;5.43;2.55;;;32.20;91.30;;;;;;5048790;28;20140;-76
2022/08/21 09:40:37;;;;;;;4.57;2.65;;;32.50;90.90;;;;;;5050223;28;20103;-76
2022/08/21 09:43:13;;;;;;;4.70;3.45;;;32.50;90.80;;;;;;5031233;28;20167;-75
2022/08/21 09:45:43;;;;;;;6.32;2.78;;;32.40;91.00;;;;;;5064941;28;20099;-76
2022/08/21 09:48:22;;;;;;;7.90;3.15;;;32.40;90.70;;;;;;5065272;28;20128;-76
2022/08/21 09:50:52;;;;;;;6.35;2.47;;;32.50;90.80;;;;;;5048441;28;20077;-76
2022/08/21 09:53:21;;;;;;;5.90;2.58;;;32.50;90.90;;;;;;5065100;28;20088;-75
2022/08/21 09:58:50;;;;;;;7.35;2.72;;;32.40;91.00;;;;;;5081860;28;20041;-76
2022/08/21 10:01:23;;;;;;;7.32;3.05;;;32.50;91.20;;;;;;5052171;28;20041;-75
2022/08/21 10:04:07;;;;;;;7.63;3.75;;;32.40;91.20;;;;;;5015713;28;20057;-75
2022/08/21 10:06:36;;;;;;;8.27;3.08;;;32.30;91.20;;;;;;5064397;28;20057;-75
2022/08/21 10:09:16;;;;;;;8.85;3.67;;;32.20;91.20;;;;;;5081206;28;20534;-76
2022/08/21 10:11:54;;;;;;;9.35;3.00;;;32.00;91.00;;;;;;5049381;28;20072;-73
2022/08/21 10:14:59;;;;;;;8.15;2.63;;;31.70;91.00;;;;;;5081111;28;20507;-75
2022/08/21 10:17:56;;;;;;;5.65;2.38;;;31.80;90.80;;;;;;5049213;28;20061;-74
2022/08/21 10:20:28;;;;;;;12.38;4.05;;;31.70;91.20;;;;;;5031176;28;20057;-74
2022/08/21 10:23:03;;;;;;;5.72;2.92;;;31.80;91.50;;;;;;5047936;28;20079;-74
2022/08/21 10:25:40;;;;;;;4.82;2.25;;;31.70;91.40;;;;;;5048893;28;20426;-74
2022/08/21 10:28:13;;;;;;;6.90;2.38;;;31.70;91.40;;;;;;5080806;28;20071;-74
2022/08/21 10:30:56;;;;;;;6.55;2.22;;;31.60;91.40;;;;;;5081231;28;20056;-74
2022/08/21 10:33:24;;;;;;;7.95;3.33;;;31.60;91.50;;;;;;5047437;28;20037;-73
2022/08/21 10:36:02;;;;;;;5.32;2.55;;;31.60;91.60;;;;;;5064050;28;20491;-73
2022/08/21 10:38:42;;;;;;;7.47;3.63;;;31.70;91.50;;;;;;5048890;28;20538;-74
2022/08/21 10:41:44;;;;;;;8.98;3.05;;;31.80;91.30;;;;;;5046111;28;20049;-73
2022/08/21 10:44:26;;;;;;;8.38;2.63;;;31.70;91.10;;;;;;5081122;28;20055;-74
2022/08/21 10:47:04;;;;;;;7.65;2.53;;;31.90;90.90;;;;;;5063888;28;20131;-73
2022/08/21 10:49:41;;;;;;;9.98;3.88;;;31.90;90.70;;;;;;5063592;28;20214;-73
2022/08/21 10:52:30;;;;;;;4.00;2.50;;;31.90;90.70;;;;;;5055736;28;20119;-73
2022/08/21 10:55:08;;;;;;;7.13;3.10;;;31.80;90.70;;;;;;5100703;28;20094;-73
2022/08/21 10:57:59;;;;;;;5.88;2.60;;;31.80;90.30;;;;;;5067033;28;20139;-73
2022/08/21 11:00:45;;;;;;;5.07;2.50;;;31.80;90.20;;;;;;5067040;28;20037;-73
2022/08/21 11:03:32;;;;;;;7.93;3.42;;;31.90;90.20;;;;;;5066778;28;20524;-74
2022/08/21 11:06:28;;;;;;;7.93;2.20;;;31.80;90.10;;;;;;5050416;28;20459;-73
2022/08/21 11:09:04;;;;;;;5.45;2.15;;;31.80;90.50;;;;;;5100646;28;20043;-74
2022/08/21 11:11:40;;;;;;;8.75;2.80;;;31.90;90.50;;;;;;5068209;28;20075;-73
2022/08/21 11:14:35;;;;;;;7.43;2.58;;;31.90;90.10;;;;;;5067241;28;20047;-73
2022/08/21 11:17:09;;;;;;;8.57;3.33;;;31.70;90.20;;;;;;5084268;28;20507;-73
2022/08/21 11:19:59;;;;;;;7.33;2.90;;;31.60;90.20;;;;;;5067070;28;20037;-73
2022/08/21 11:22:45;;;;;;;6.97;2.90;;;31.50;90.00;;;;;;5068207;28;20456;-73
2022/08/21 11:25:35;;;;;;;6.97;2.55;;;31.40;90.20;;;;;;5082913;28;20748;-74
2022/08/21 11:28:21;;;;;;;4.72;3.05;;;31.50;90.50;;;;;;5066683;28;20044;-73
2022/08/21 11:31:19;;;;;;;7.10;2.38;;;31.60;89.50;;;;;;5066846;28;20109;-73
2022/08/21 11:34:01;;;;;;;4.90;2.63;;;31.70;88.70;;;;;;5067864;28;20064;-73
2022/08/21 11:37:00;;;;;;;5.05;1.90;;;31.80;88.10;;;;;;5068327;28;20406;-73
2022/08/21 11:39:45;;;;;;;6.47;2.10;;;31.80;87.70;;;;;;5083434;28;20056;-74
2022/08/21 11:42:35;;;;;;;6.80;2.45;;;31.80;85.90;;;;;;5097986;28;20550;-73
2022/08/21 11:45:22;;;;;;;5.20;2.67;;;31.80;85.10;;;;;;5100232;28;20082;-73
2022/08/21 11:48:12;;;;;;;3.72;2.05;;;31.90;85.20;;;;;;5067854;28;20044;-73
2022/08/21 11:50:42;;;;;;;5.55;2.08;;;32.00;83.40;;;;;;5066782;28;20087;-74
2022/08/21 11:53:21;;;;;;;3.03;1.58;;;32.10;83.20;;;;;;5049965;28;20049;-73
2022/08/21 11:56:00;;;;;;;6.10;1.83;;;32.10;82.90;;;;;;5100090;28;20806;-73
2022/08/21 11:58:39;;;;;;;3.97;2.05;;;32.20;83.90;;;;;;5079253;28;20480;-73
2022/08/21 12:01:16;;;;;;;6.47;2.25;;;32.00;84.60;;;;;;5047921;28;20132;-73
2022/08/21 12:03:52;;;;;;;4.00;2.03;;;32.00;84.50;;;;;;5062791;28;20049;-73
2022/08/21 12:06:38;;;;;;;4.03;1.80;;;32.00;83.70;;;;;;5065858;28;20048;-75
2022/08/21 12:09:09;;;;;;;3.67;2.00;;;31.90;82.90;;;;;;5067750;28;20114;-72
2022/08/21 12:12:10;;;;;;;6.50;2.42;;;32.00;82.30;;;;;;5050397;28;20146;-73
2022/08/21 12:14:41;;;;;;;4.55;1.92;;;31.90;81.40;;;;;;5051657;28;20055;-73
2022/08/21 12:17:18;;;;;;;5.38;2.00;;;31.80;81.00;;;;;;5066955;28;20090;-73
2022/08/21 12:20:16;;;;;;;5.03;1.70;;;31.80;81.40;;;;;;5050017;28;20908;-73
2022/08/21 12:22:55;;;;;;;2.33;1.55;;;31.80;81.90;;;;;;5050318;28;20438;-74
2022/08/21 12:25:22;;;;;;;5.82;2.20;;;31.80;82.60;;;;;;5066551;28;20037;-74
2022/08/21 12:27:53;;;;;;;5.18;2.50;;;31.70;83.10;;;;;;5066306;28;20041;-73
2022/08/21 12:30:43;;;;;;;5.35;1.80;;;31.60;82.40;;;;;;5083162;28;20470;-73
2022/08/21 12:33:39;;;;;;;4.78;1.95;;;31.60;83.20;;;;;;5016828;28;20041;-74
2022/08/21 12:36:12;;;;;;;5.38;2.80;;;31.50;84.00;;;;;;5066446;28;20060;-73
2022/08/21 12:38:51;;;;;;;5.50;2.20;;;31.40;84.60;;;;;;5033299;28;20052;-73
2022/08/21 12:41:30;;;;;;;5.55;2.03;;;31.50;84.20;;;;;;5083277;28;20041;-74
2022/08/21 12:44:05;;;;;;;4.80;2.20;;;31.40;84.30;;;;;;5065578;28;20076;-73
2022/08/21 12:46:50;;;;;;;3.03;1.85;;;31.40;83.80;;;;;;5067005;28;20044;-73
2022/08/21 12:50:00;;;;;;;5.53;1.85;;;31.40;83.30;;;;;;5049947;28;20391;-74
2022/08/21 12:52:32;;;;;;;7.57;2.90;;;31.40;83.70;;;;;;5049744;28;20041;-74
2022/08/21 12:55:04;;;;;;;5.90;1.92;;;31.20;84.30;;;;;;5049809;28;20093;-73
2022/08/21 12:57:31;;;;;;;7.47;2.75;;;31.30;84.80;;;;;;5049056;28;20048;-73
2022/08/21 13:00:06;;;;;;;4.20;1.90;;;31.30;84.80;;;;;;5083092;28;20048;-74
2022/08/21 13:02:43;;;;;;;7.13;2.20;;;31.30;85.10;;;;;;5049620;28;20148;-73
2022/08/21 13:05:16;;;;;;;9.80;2.85;;;31.20;85.00;;;;;;5032647;28;20067;-74
2022/08/21 13:07:48;;;;;;;4.72;1.85;;;31.00;84.20;;;;;;5048984;28;20570;-73
2022/08/21 13:10:30;;;;;;;5.00;1.95;;;30.90;83.90;;;;;;5050176;28;20037;-74
2022/08/21 13:13:02;;;;;;;6.13;2.17;;;30.90;85.50;;;;;;5065708;28;20493;-74
2022/08/21 13:15:34;;;;;;;5.57;2.08;;;31.00;85.40;;;;;;5064584;28;20511;-73
2022/08/21 13:18:04;;;;;;;4.30;2.17;;;31.00;85.70;;;;;;5048827;28;20431;-74
2022/08/21 13:20:38;;;;;;;4.63;1.90;;;30.90;86.20;;;;;;5049931;28;20685;-75